Time;durP1;ratioP1;P1;durP2;ratioP2;P2;SDS_P1;SDS_P2;PMS_P1;PMS_P2;Temp;Humidity;BMP_temperature;BMP_pressure;BME280_temperature;BME280_humidity;BME280_pressure;Samples;Min_cycle;Max_cycle;Signal;HPM_P1;HPM_P2
2021/09/11 00:00:14;;;;;;;8.23;5.55;;;;;;;;;;1029079;28;99833;-72
2021/09/11 00:00:45;;;;;;;8.35;5.50;;;;;;;;;;1027796;28;101327;-72
2021/09/11 00:01:16;;;;;;;9.95;6.13;;;;;;;;;;1028965;28;99804;-72
2021/09/11 00:01:47;;;;;;;8.48;6.35;;;;;;;;;;1031458;28;101647;-72
2021/09/11 00:02:18;;;;;;;8.65;5.80;;;;;;;;;;1033190;28;99735;-72
2021/09/11 00:02:48;;;;;;;9.40;5.85;;;;;;;;;;1027768;28;101680;-72
2021/09/11 00:03:19;;;;;;;7.45;5.70;;;;;;;;;;1032567;28;99882;-72
2021/09/11 00:03:50;;;;;;;9.23;6.13;;;;;;;;;;1027810;28;100435;-72
2021/09/11 00:04:21;;;;;;;7.60;5.38;;;;;;;;;;1028643;28;100223;-72
2021/09/11 00:04:52;;;;;;;7.65;5.88;;;;;;;;;;1031214;28;101389;-72
2021/09/11 00:05:23;;;;;;;8.15;5.53;;;;;;;;;;1029167;28;99915;-72
2021/09/11 00:05:54;;;;;;;9.90;5.60;;;;;;;;;;1027995;28;100211;-72
2021/09/11 00:06:25;;;;;;;9.07;5.60;;;;;;;;;;1029123;28;99972;-72
2021/09/11 00:06:57;;;;;;;10.95;6.40;;;;;;;;;;1027862;28;100089;-72
2021/09/11 00:07:29;;;;;;;8.77;5.60;;;;;;;;;;1029241;28;99775;-72
2021/09/11 00:08:00;;;;;;;8.48;5.85;;;;;;;;;;1027906;28;101128;-72
2021/09/11 00:08:31;;;;;;;7.90;5.53;;;;;;;;;;1028522;28;100027;-72
2021/09/11 00:09:02;;;;;;;7.20;5.85;;;;;;;;;;1027682;28;100465;-72
2021/09/11 00:09:33;;;;;;;9.48;5.68;;;;;;;;;;1028750;28;99900;-72
2021/09/11 00:10:10;;;;;;;9.32;5.57;;;;;;;;;;1027410;28;100140;-72
2021/09/11 00:10:41;;;;;;;7.82;5.68;;;;;;;;;;1028795;28;100291;-72
2021/09/11 00:11:12;;;;;;;9.95;5.57;;;;;;;;;;1027842;28;100119;-73
2021/09/11 00:11:43;;;;;;;7.13;5.60;;;;;;;;;;1028916;28;100000;-72
2021/09/11 00:12:14;;;;;;;8.63;5.78;;;;;;;;;;1027725;28;100234;-72
2021/09/11 00:12:45;;;;;;;7.88;6.05;;;;;;;;;;1028732;28;100039;-72
2021/09/11 00:13:16;;;;;;;11.10;6.32;;;;;;;;;;1023680;28;101538;-72
2021/09/11 00:13:47;;;;;;;8.55;5.75;;;;;;;;;;1028780;28;99871;-72
2021/09/11 00:14:18;;;;;;;9.52;6.25;;;;;;;;;;1023855;28;100219;-73
2021/09/11 00:14:48;;;;;;;8.60;5.78;;;;;;;;;;1025014;28;100046;-72
2021/09/11 00:15:19;;;;;;;9.48;5.97;;;;;;;;;;1027535;28;100211;-72
2021/09/11 00:15:51;;;;;;;9.85;5.85;;;;;;;;;;1032765;28;100053;-72
2021/09/11 00:16:21;;;;;;;7.35;5.70;;;;;;;;;;1036004;28;100221;-72
2021/09/11 00:16:52;;;;;;;9.05;6.00;;;;;;;;;;1037010;28;99943;-72
2021/09/11 00:17:23;;;;;;;6.07;5.45;;;;;;;;;;1035420;28;100240;-72
2021/09/11 00:17:54;;;;;;;8.27;5.45;;;;;;;;;;1029297;28;100395;-72
2021/09/11 00:18:25;;;;;;;8.85;5.95;;;;;;;;;;1027695;28;100351;-72
2021/09/11 00:18:55;;;;;;;8.27;5.75;;;;;;;;;;1028877;28;100188;-72
2021/09/11 00:19:26;;;;;;;7.55;5.68;;;;;;;;;;1027772;28;100232;-72
2021/09/11 00:19:57;;;;;;;7.55;5.22;;;;;;;;;;1025308;28;99892;-72
2021/09/11 00:20:29;;;;;;;8.90;5.50;;;;;;;;;;1027653;28;100342;-72
2021/09/11 00:21:00;;;;;;;8.15;6.05;;;;;;;;;;1028331;28;100008;-72
2021/09/11 00:21:30;;;;;;;7.93;5.55;;;;;;;;;;1027224;28;101389;-72
2021/09/11 00:22:01;;;;;;;6.30;5.60;;;;;;;;;;1029349;28;99953;-72
2021/09/11 00:22:33;;;;;;;7.43;5.20;;;;;;;;;;1027821;28;101733;-72
2021/09/11 00:23:09;;;;;;;8.80;5.70;;;;;;;;;;1027992;28;100188;-72
2021/09/11 00:23:40;;;;;;;7.95;5.50;;;;;;;;;;1023400;28;100183;-72
2021/09/11 00:24:11;;;;;;;8.93;6.30;;;;;;;;;;1024508;28;99791;-72
2021/09/11 00:24:41;;;;;;;8.07;5.82;;;;;;;;;;1027007;28;100155;-73
2021/09/11 00:25:12;;;;;;;10.70;6.40;;;;;;;;;;1028940;28;100070;-72
2021/09/11 00:25:43;;;;;;;8.25;5.50;;;;;;;;;;1031815;28;100082;-72
2021/09/11 00:26:14;;;;;;;6.78;5.35;;;;;;;;;;1032856;28;99881;-73
2021/09/11 00:26:45;;;;;;;9.73;5.72;;;;;;;;;;1029688;28;100363;-73
2021/09/11 00:27:24;;;;;;;7.15;5.60;;;;;;;;;;1032466;28;100158;-73
2021/09/11 00:27:54;;;;;;;7.47;5.28;;;;;;;;;;1031567;28;100143;-72
2021/09/11 00:28:26;;;;;;;8.30;5.93;;;;;;;;;;1033116;28;100032;-73
2021/09/11 00:28:57;;;;;;;6.13;5.53;;;;;;;;;;1029843;28;101590;-73
2021/09/11 00:29:28;;;;;;;10.27;5.72;;;;;;;;;;1028567;28;99909;-73
2021/09/11 00:29:59;;;;;;;8.63;5.82;;;;;;;;;;1027418;28;100300;-73
2021/09/11 00:30:30;;;;;;;6.55;5.50;;;;;;;;;;1026694;28;100589;-73
2021/09/11 00:31:01;;;;;;;6.95;5.28;;;;;;;;;;1016879;28;102219;-72
2021/09/11 00:31:32;;;;;;;10.55;6.13;;;;;;;;;;1013788;28;100110;-72
2021/09/11 00:32:04;;;;;;;7.85;5.18;;;;;;;;;;1013883;28;100799;-72
2021/09/11 00:32:35;;;;;;;8.32;5.72;;;;;;;;;;1018176;28;100286;-72
2021/09/11 00:33:06;;;;;;;7.70;5.75;;;;;;;;;;1032936;28;101677;-72
2021/09/11 00:33:37;;;;;;;7.00;5.43;;;;;;;;;;1035252;28;99970;-73
2021/09/11 00:34:08;;;;;;;8.52;5.50;;;;;;;;;;1034188;28;101522;-73
2021/09/11 00:34:39;;;;;;;7.40;5.80;;;;;;;;;;1036128;28;99930;-73
2021/09/11 00:35:17;;;;;;;8.00;5.68;;;;;;;;;;1030898;28;101512;-72
2021/09/11 00:35:48;;;;;;;6.60;5.03;;;;;;;;;;1030399;28;100021;-72
2021/09/11 00:36:18;;;;;;;6.13;5.07;;;;;;;;;;1032423;28;100824;-72
2021/09/11 00:36:49;;;;;;;6.18;5.05;;;;;;;;;;1032975;28;99813;-72
2021/09/11 00:37:20;;;;;;;7.93;5.30;;;;;;;;;;1034642;28;100137;-72
2021/09/11 00:37:51;;;;;;;7.63;5.15;;;;;;;;;;1031836;28;100029;-73
2021/09/11 00:38:22;;;;;;;6.88;5.05;;;;;;;;;;1026796;28;101173;-72
2021/09/11 00:38:53;;;;;;;9.18;6.00;;;;;;;;;;1028519;28;99988;-73
2021/09/11 00:39:24;;;;;;;8.00;5.15;;;;;;;;;;1027572;28;100195;-73
2021/09/11 00:39:55;;;;;;;6.60;5.82;;;;;;;;;;1029117;28;100130;-72
2021/09/11 00:40:26;;;;;;;6.68;5.25;;;;;;;;;;1027980;28;100093;-73
2021/09/11 00:40:57;;;;;;;8.43;5.75;;;;;;;;;;1028725;28;99743;-73
2021/09/11 00:41:28;;;;;;;7.50;5.70;;;;;;;;;;1027681;28;100145;-73
2021/09/11 00:41:59;;;;;;;6.38;4.93;;;;;;;;;;1028916;28;100020;-72
2021/09/11 00:42:29;;;;;;;7.57;5.35;;;;;;;;;;1027686;28;100152;-73
2021/09/11 00:43:00;;;;;;;6.53;5.25;;;;;;;;;;1028545;28;99830;-73
2021/09/11 00:43:34;;;;;;;7.60;5.07;;;;;;;;;;1027468;28;100126;-73
2021/09/11 00:44:05;;;;;;;7.50;5.47;;;;;;;;;;1032691;28;99833;-72
2021/09/11 00:44:36;;;;;;;5.97;5.25;;;;;;;;;;1032122;28;101325;-73
2021/09/11 00:45:08;;;;;;;6.78;5.03;;;;;;;;;;1032734;28;99715;-72
2021/09/11 00:45:38;;;;;;;9.00;5.68;;;;;;;;;;1031375;28;100161;-73
2021/09/11 00:46:09;;;;;;;7.50;4.93;;;;;;;;;;1028746;28;100072;-72
2021/09/11 00:46:40;;;;;;;6.50;5.65;;;;;;;;;;1027889;28;100209;-72
2021/09/11 00:47:11;;;;;;;7.05;5.60;;;;;;;;;;1032746;28;99818;-73
2021/09/11 00:47:42;;;;;;;7.45;5.50;;;;;;;;;;1031309;28;100203;-73
2021/09/11 00:48:13;;;;;;;7.18;4.97;;;;;;;;;;1029172;28;99641;-72
2021/09/11 00:48:44;;;;;;;7.10;5.07;;;;;;;;;;1027494;28;101354;-73
2021/09/11 00:49:15;;;;;;;8.60;5.63;;;;;;;;;;1028961;28;100117;-73
2021/09/11 00:49:46;;;;;;;6.88;5.53;;;;;;;;;;1031605;28;100210;-73
2021/09/11 00:50:19;;;;;;;6.75;5.75;;;;;;;;;;1036377;28;100020;-72
2021/09/11 00:50:50;;;;;;;7.30;5.05;;;;;;;;;;1034982;28;100243;-73
2021/09/11 00:51:21;;;;;;;7.05;5.28;;;;;;;;;;1036177;28;100063;-72
2021/09/11 00:51:51;;;;;;;5.88;5.28;;;;;;;;;;1030149;28;103084;-72
2021/09/11 00:52:22;;;;;;;6.90;5.20;;;;;;;;;;1028018;28;99992;-73
2021/09/11 00:52:53;;;;;;;7.82;5.45;;;;;;;;;;1027008;28;100155;-72
2021/09/11 00:53:24;;;;;;;5.72;4.75;;;;;;;;;;1028003;28;100023;-72
2021/09/11 00:53:55;;;;;;;6.95;5.15;;;;;;;;;;1026579;28;101496;-73
2021/09/11 00:54:26;;;;;;;7.18;5.40;;;;;;;;;;1028151;28;100004;-72
2021/09/11 00:54:57;;;;;;;5.95;4.97;;;;;;;;;;1026662;28;101378;-73
2021/09/11 00:55:28;;;;;;;7.95;5.10;;;;;;;;;;1023765;28;100434;-72
2021/09/11 00:55:59;;;;;;;6.03;4.78;;;;;;;;;;1023013;28;100158;-73
2021/09/11 00:56:32;;;;;;;6.63;5.10;;;;;;;;;;1024398;28;99971;-72
2021/09/11 00:57:04;;;;;;;7.13;5.05;;;;;;;;;;1027111;28;100663;-72
2021/09/11 00:57:37;;;;;;;8.38;5.15;;;;;;;;;;1028250;28;100027;-72
2021/09/11 00:58:09;;;;;;;5.95;4.65;;;;;;;;;;1026408;28;101645;-73
2021/09/11 00:58:40;;;;;;;6.15;5.05;;;;;;;;;;1027619;28;100601;-72
2021/09/11 00:59:11;;;;;;;7.75;5.15;;;;;;;;;;1026579;28;100182;-72
2021/09/11 00:59:41;;;;;;;6.68;4.85;;;;;;;;;;1027992;28;100191;-72
2021/09/11 01:00:14;;;;;;;5.72;5.03;;;;;;;;;;1030751;28;100399;-72
2021/09/11 01:00:45;;;;;;;7.22;5.28;;;;;;;;;;1027941;28;100042;-71
2021/09/11 01:01:16;;;;;;;6.13;5.53;;;;;;;;;;1026521;28;100196;-71
2021/09/11 01:01:47;;;;;;;6.82;5.28;;;;;;;;;;1027749;28;100023;-73
2021/09/11 01:02:18;;;;;;;6.32;4.82;;;;;;;;;;1026399;28;101405;-73
2021/09/11 01:02:49;;;;;;;8.18;5.75;;;;;;;;;;1031586;28;100084;-72
2021/09/11 01:03:20;;;;;;;5.78;4.90;;;;;;;;;;1030692;28;100702;-71
2021/09/11 01:03:51;;;;;;;6.47;5.22;;;;;;;;;;1036152;28;99923;-72
2021/09/11 01:04:22;;;;;;;7.15;4.75;;;;;;;;;;1034757;28;101479;-71
2021/09/11 01:04:53;;;;;;;6.38;5.32;;;;;;;;;;1036202;28;100477;-71
2021/09/11 01:05:23;;;;;;;6.60;4.90;;;;;;;;;;1029828;28;101342;-72
2021/09/11 01:05:54;;;;;;;6.40;4.80;;;;;;;;;;1027144;28;100132;-72
2021/09/11 01:06:25;;;;;;;7.30;5.30;;;;;;;;;;1026133;28;101282;-72
2021/09/11 01:06:58;;;;;;;7.88;5.25;;;;;;;;;;1024310;28;99990;-72
2021/09/11 01:07:30;;;;;;;8.25;4.80;;;;;;;;;;1027451;28;100450;-72
2021/09/11 01:08:01;;;;;;;5.43;4.70;;;;;;;;;;1031339;28;100139;-73
2021/09/11 01:08:33;;;;;;;6.07;4.88;;;;;;;;;;1027257;28;100726;-72
2021/09/11 01:09:04;;;;;;;5.97;5.20;;;;;;;;;;1028515;28;100007;-72
2021/09/11 01:09:35;;;;;;;6.28;4.88;;;;;;;;;;1027101;28;101308;-73
2021/09/11 01:10:07;;;;;;;6.90;5.18;;;;;;;;;;1028421;28;100099;-72
2021/09/11 01:10:39;;;;;;;7.20;5.30;;;;;;;;;;1026907;28;100361;-72
2021/09/11 01:11:11;;;;;;;7.75;5.28;;;;;;;;;;1028126;28;99956;-72
2021/09/11 01:11:42;;;;;;;5.32;4.80;;;;;;;;;;1027032;28;100131;-72
2021/09/11 01:12:13;;;;;;;7.13;5.15;;;;;;;;;;1028090;28;100030;-72
2021/09/11 01:12:44;;;;;;;7.80;5.10;;;;;;;;;;1027277;28;100196;-72
2021/09/11 01:13:15;;;;;;;6.07;4.60;;;;;;;;;;1031945;28;100019;-72
2021/09/11 01:13:46;;;;;;;9.30;5.50;;;;;;;;;;1030763;28;100178;-72
2021/09/11 01:14:17;;;;;;;5.85;4.97;;;;;;;;;;1032350;28;99921;-72
2021/09/11 01:14:48;;;;;;;7.18;4.82;;;;;;;;;;1030979;28;100267;-72
2021/09/11 01:15:31;;;;;;;5.82;4.93;;;;;;;;;;1032121;28;100404;-72
2021/09/11 01:16:03;;;;;;;7.05;5.18;;;;;;;;;;1030889;28;101548;-72
2021/09/11 01:16:34;;;;;;;7.13;5.40;;;;;;;;;;1032423;28;100092;-74
2021/09/11 01:17:05;;;;;;;5.90;4.82;;;;;;;;;;1035058;28;100213;-72
2021/09/11 01:17:39;;;;;;;6.00;5.15;;;;;;;;;;1036510;28;100070;-72
2021/09/11 01:18:10;;;;;;;5.93;4.78;;;;;;;;;;1034997;28;101597;-71
2021/09/11 01:18:41;;;;;;;6.53;4.93;;;;;;;;;;1035003;28;99655;-72
2021/09/11 01:19:11;;;;;;;6.28;5.00;;;;;;;;;;1027153;28;100947;-72
2021/09/11 01:19:43;;;;;;;8.07;5.30;;;;;;;;;;1032151;28;100009;-72
2021/09/11 01:20:14;;;;;;;8.35;5.13;;;;;;;;;;1030917;28;100372;-72
2021/09/11 01:20:45;;;;;;;6.75;5.10;;;;;;;;;;1027879;28;100085;-72
2021/09/11 01:21:16;;;;;;;7.30;5.10;;;;;;;;;;1026873;28;103429;-72
2021/09/11 01:21:47;;;;;;;6.13;5.53;;;;;;;;;;1028414;28;99734;-72
2021/09/11 01:22:18;;;;;;;8.00;5.10;;;;;;;;;;1031237;28;100175;-72
2021/09/11 01:22:48;;;;;;;6.07;4.50;;;;;;;;;;1032935;28;99685;-72
2021/09/11 01:23:20;;;;;;;5.63;5.03;;;;;;;;;;1035314;28;100320;-72
2021/09/11 01:23:51;;;;;;;7.10;4.80;;;;;;;;;;1036334;28;99852;-73
2021/09/11 01:24:22;;;;;;;6.45;5.00;;;;;;;;;;1031175;28;101382;-72
2021/09/11 01:25:01;;;;;;;6.63;5.07;;;;;;;;;;1032393;28;100068;-72
2021/09/11 01:25:32;;;;;;;6.53;5.20;;;;;;;;;;1027749;28;100183;-73
2021/09/11 01:26:03;;;;;;;7.80;5.30;;;;;;;;;;1028809;28;99899;-72
2021/09/11 01:26:33;;;;;;;6.40;4.63;;;;;;;;;;1027760;28;100100;-72
2021/09/11 01:27:04;;;;;;;6.97;5.22;;;;;;;;;;1028981;28;99729;-72
2021/09/11 01:27:36;;;;;;;7.68;5.15;;;;;;;;;;1027747;28;100136;-72
2021/09/11 01:28:07;;;;;;;6.40;4.95;;;;;;;;;;1028754;28;99838;-72
2021/09/11 01:28:38;;;;;;;7.53;5.10;;;;;;;;;;1027584;28;101188;-73
2021/09/11 01:29:10;;;;;;;8.30;5.00;;;;;;;;;;1028926;28;99769;-72
2021/09/11 01:29:41;;;;;;;6.72;4.78;;;;;;;;;;1027888;28;100185;-72
2021/09/11 01:30:15;;;;;;;7.15;4.63;;;;;;;;;;1029068;28;99761;-73
2021/09/11 01:30:46;;;;;;;8.13;5.68;;;;;;;;;;1027475;28;100140;-72
2021/09/11 01:31:17;;;;;;;7.30;4.85;;;;;;;;;;1028857;28;99729;-72
2021/09/11 01:31:48;;;;;;;5.78;5.03;;;;;;;;;;1027574;28;100128;-73
2021/09/11 01:32:19;;;;;;;6.38;4.95;;;;;;;;;;1029029;28;99767;-73
2021/09/11 01:32:51;;;;;;;7.15;5.03;;;;;;;;;;1027854;28;100229;-72
2021/09/11 01:33:23;;;;;;;5.75;5.07;;;;;;;;;;1028469;28;99967;-73
2021/09/11 01:33:54;;;;;;;7.32;5.35;;;;;;;;;;1027497;28;100193;-73
2021/09/11 01:34:24;;;;;;;6.32;5.15;;;;;;;;;;1028720;28;100031;-72
2021/09/11 01:34:55;;;;;;;5.95;4.95;;;;;;;;;;1031893;28;100095;-72
2021/09/11 01:35:26;;;;;;;10.02;5.22;;;;;;;;;;1037003;28;100061;-72
2021/09/11 01:35:57;;;;;;;6.53;5.03;;;;;;;;;;1035780;28;100270;-73
2021/09/11 01:36:29;;;;;;;7.95;4.80;;;;;;;;;;1036734;28;99982;-73
